Time,TemperatureF,DewpointF,PressureIn,WindDirection,WindDirectionDegrees,WindSpeedMPH,WindSpeedGustMPH,Humidity,HourlyPrecipIn,Conditions,Clouds,dailyrainin,SoftwareType,DateUTC
2013-03-26 00:05:00,30.0,23.7,29.64,NE,45,2.7,-999.0,77,-99.99,,,0.00,Acu-Link.com,2013-03-26 04:05:00,
2013-03-26 00:20:00,29.5,23.5,29.64,ESE,112,0.0,-999.0,78,-99.99,,,0.00,Acu-Link.com,2013-03-26 04:20:00,
2013-03-26 00:35:00,29.3,23.6,29.64,WNW,292,1.7,-999.0,79,-99.99,,,0.00,Acu-Link.com,2013-03-26 04:35:00,
2013-03-26 00:50:00,29.3,23.6,29.64,ENE,67,4.2,-999.0,79,-99.99,,,0.00,Acu-Link.com,2013-03-26 04:50:00,
2013-03-26 01:05:00,28.9,23.5,29.65,West,270,3.7,-999.0,80,-99.99,,,0.00,Acu-Link.com,2013-03-26 05:05:00,
2013-03-26 01:20:00,28.8,24.3,29.66,WSW,247,1.1,-999.0,83,-99.99,,,0.00,Acu-Link.com,2013-03-26 05:20:00,
2013-03-26 01:36:00,28.6,23.8,29.66,West,270,4.2,-999.0,82,-99.99,,,0.00,Acu-Link.com,2013-03-26 05:36:00,
2013-03-26 02:21:00,27.9,23.4,29.67,NW,315,8.3,-999.0,83,-99.99,,,0.00,Acu-Link.com,2013-03-26 06:21:00,
2013-03-26 02:36:00,28.0,23.8,29.67,SW,225,1.1,-999.0,84,-99.99,,,0.00,Acu-Link.com,2013-03-26 06:36:00,
2013-03-26 02:51:00,27.9,23.7,29.67,South,180,2.7,-999.0,84,-99.99,,,0.00,Acu-Link.com,2013-03-26 06:51:00,
2013-03-26 03:06:00,27.9,23.4,29.68,NE,45,2.7,-999.0,83,-99.99,,,0.00,Acu-Link.com,2013-03-26 07:06:00,
2013-03-26 03:36:00,27.9,23.4,29.67,NE,45,3.2,-999.0,83,-99.99,,,0.00,Acu-Link.com,2013-03-26 07:36:00,
2013-03-26 03:52:00,27.9,23.4,29.67,NNE,22,4.7,-999.0,83,-99.99,,,0.00,Acu-Link.com,2013-03-26 07:52:00,
2013-03-26 04:07:00,28.0,22.9,29.67,ENE,67,4.2,-999.0,81,-99.99,,,0.00,Acu-Link.com,2013-03-26 08:07:00,
2013-03-26 04:22:00,28.0,23.2,29.67,NNW,337,4.7,-999.0,82,-99.99,,,0.00,Acu-Link.com,2013-03-26 08:22:00,
2013-03-26 04:37:00,28.0,23.2,29.67,NW,315,3.2,-999.0,82,-99.99,,,0.00,Acu-Link.com,2013-03-26 08:37:00,
2013-03-26 04:52:00,28.2,23.1,29.67,SSW,202,5.8,-999.0,81,-99.99,,,0.00,Acu-Link.com,2013-03-26 08:52:00,
2013-03-26 05:07:00,28.2,23.1,29.66,East,90,4.2,-999.0,81,-99.99,,,0.00,Acu-Link.com,2013-03-26 09:07:00,
2013-03-26 05:23:00,28.2,22.8,29.66,SE,135,2.7,-999.0,80,-99.99,,,0.00,Acu-Link.com,2013-03-26 09:23:00,
2013-03-26 05:38:00,28.4,23.0,29.67,East,90,3.7,-999.0,80,-99.99,,,0.00,Acu-Link.com,2013-03-26 09:38:00,
2013-03-26 05:53:00,28.4,23.3,29.67,WSW,247,1.7,-999.0,81,-99.99,,,0.00,Acu-Link.com,2013-03-26 09:53:00,
2013-03-26 06:08:00,28.4,23.3,29.67,West,270,5.8,-999.0,81,-99.99,,,0.00,Acu-Link.com,2013-03-26 10:08:00,
2013-03-26 06:23:00,28.4,23.3,29.67,SSE,157,3.2,-999.0,81,-99.99,,,0.00,Acu-Link.com,2013-03-26 10:23:00,
2013-03-26 06:38:00,28.4,24.2,29.66,SSE,157,2.2,-999.0,84,-99.99,,,0.00,Acu-Link.com,2013-03-26 10:38:00,
2013-03-26 06:53:00,28.2,24.3,29.66,ESE,112,2.7,-999.0,85,-99.99,,,0.00,Acu-Link.com,2013-03-26 10:53:00,
2013-03-26 07:08:00,27.9,24.3,29.67,NNE,22,2.7,-999.0,86,-99.99,,,0.00,Acu-Link.com,2013-03-26 11:08:00,
2013-03-26 07:23:00,27.9,24.3,29.67,NNE,22,7.3,-999.0,86,-99.99,,,0.00,Acu-Link.com,2013-03-26 11:23:00,
2013-03-26 07:39:00,27.9,24.5,29.68,SE,135,1.7,-999.0,87,-99.99,,,0.00,Acu-Link.com,2013-03-26 11:39:00,
2013-03-26 07:54:00,28.2,24.6,29.68,SSE,157,2.2,-999.0,86,-99.99,,,0.00,Acu-Link.com,2013-03-26 11:54:00,
2013-03-26 08:09:00,28.6,25.2,29.69,SE,135,3.7,-999.0,87,-99.99,,,0.00,Acu-Link.com,2013-03-26 12:09:00,
2013-03-26 08:24:00,28.9,25.0,29.69,ENE,67,2.7,-999.0,85,-99.99,,,0.00,Acu-Link.com,2013-03-26 12:24:00,
2013-03-26 08:39:00,30.0,24.9,29.70,NW,315,3.2,-999.0,81,-99.99,,,0.00,Acu-Link.com,2013-03-26 12:39:00,
2013-03-26 08:54:00,30.7,25.3,29.70,NW,315,8.3,-999.0,80,-99.99,,,0.00,Acu-Link.com,2013-03-26 12:54:00,
2013-03-26 09:09:00,31.6,24.9,29.71,East,90,3.7,-999.0,76,-99.99,,,0.00,Acu-Link.com,2013-03-26 13:09:00,
2013-03-26 09:24:00,31.6,24.0,29.72,NW,315,6.8,-999.0,73,-99.99,,,0.00,Acu-Link.com,2013-03-26 13:24:00,
2013-03-26 09:39:00,31.8,23.8,29.73,NW,315,3.2,-999.0,72,-99.99,,,0.00,Acu-Link.com,2013-03-26 13:39:00,
2013-03-26 09:55:00,34.2,24.8,29.73,NNW,337,6.3,-999.0,68,-99.99,,,0.00,Acu-Link.com,2013-03-26 13:55:00,
2013-03-26 10:10:00,35.1,24.9,29.74,NW,315,8.3,-999.0,66,-99.99,,,0.00,Acu-Link.com,2013-03-26 14:10:00,
2013-03-26 10:25:00,34.0,24.2,29.76,WNW,292,4.2,-999.0,67,-99.99,,,0.00,Acu-Link.com,2013-03-26 14:25:00,
2013-03-26 10:40:00,34.5,23.6,29.76,South,180,6.3,-999.0,64,-99.99,,,0.00,Acu-Link.com,2013-03-26 14:40:00,
2013-03-26 10:55:00,35.8,24.8,29.78,SSE,157,3.7,-999.0,64,-99.99,,,0.00,Acu-Link.com,2013-03-26 14:55:00,
2013-03-26 11:10:00,38.1,25.9,29.78,West,270,11.4,-999.0,61,-99.99,,,0.00,Acu-Link.com,2013-03-26 15:10:00,
2013-03-26 11:25:00,35.1,23.8,29.79,WNW,292,10.4,-999.0,63,-99.99,,,0.00,Acu-Link.com,2013-03-26 15:25:00,
2013-03-26 11:40:00,36.1,24.4,29.79,WSW,247,2.7,-999.0,62,-99.99,,,0.00,Acu-Link.com,2013-03-26 15:40:00,
2013-03-26 11:55:00,36.1,24.4,29.80,NW,315,6.8,-999.0,62,-99.99,,,0.00,Acu-Link.com,2013-03-26 15:55:00,
2013-03-26 12:10:00,36.7,24.1,29.80,NE,45,11.4,-999.0,60,-99.99,,,0.00,Acu-Link.com,2013-03-26 16:10:00,
2013-03-26 12:26:00,36.3,24.2,29.81,ESE,112,5.3,-999.0,61,-99.99,,,0.00,Acu-Link.com,2013-03-26 16:26:00,
2013-03-26 12:41:00,36.5,24.0,29.80,ENE,67,1.7,-999.0,60,-99.99,,,0.00,Acu-Link.com,2013-03-26 16:41:00,
2013-03-26 13:26:00,38.3,23.1,29.80,North,0,7.3,-999.0,54,-99.99,,,0.00,Acu-Link.com,2013-03-26 17:26:00,
2013-03-26 13:41:00,36.0,23.9,29.80,NW,315,5.8,-999.0,61,-99.99,,,0.00,Acu-Link.com,2013-03-26 17:41:00,
2013-03-26 13:56:00,37.4,23.6,29.81,NW,315,5.3,-999.0,57,-99.99,,,0.00,Acu-Link.com,2013-03-26 17:56:00,
2013-03-26 14:11:00,36.7,23.7,29.81,WNW,292,5.8,-999.0,59,-99.99,,,0.00,Acu-Link.com,2013-03-26 18:11:00,
2013-03-26 14:26:00,39.2,25.3,29.81,ENE,67,5.8,-999.0,57,-99.99,,,0.00,Acu-Link.com,2013-03-26 18:26:00,
2013-03-26 14:42:00,37.4,24.4,29.81,SSW,202,4.7,-999.0,59,-99.99,,,0.00,Acu-Link.com,2013-03-26 18:42:00,
2013-03-26 14:57:00,37.6,25.0,29.82,NNW,337,7.8,-999.0,60,-99.99,,,0.00,Acu-Link.com,2013-03-26 18:57:00,
2013-03-26 15:12:00,37.9,24.5,29.81,WNW,292,2.2,-999.0,58,-99.99,,,0.00,Acu-Link.com,2013-03-26 19:12:00,
2013-03-26 15:27:00,41.5,25.2,29.81,WSW,247,4.2,-999.0,52,-99.99,,,0.00,Acu-Link.com,2013-03-26 19:27:00,
2013-03-26 15:42:00,39.9,24.6,29.82,South,180,6.3,-999.0,54,-99.99,,,0.00,Acu-Link.com,2013-03-26 19:42:00,
2013-03-26 15:57:00,38.3,24.4,29.82,NW,315,6.8,-999.0,57,-99.99,,,0.00,Acu-Link.com,2013-03-26 19:57:00,
2013-03-26 16:12:00,38.8,26.1,29.84,SE,135,4.2,-999.0,60,-99.99,,,0.00,Acu-Link.com,2013-03-26 20:12:00,
2013-03-26 16:27:00,36.5,26.2,29.83,NE,45,6.3,-999.0,66,-99.99,,,0.00,Acu-Link.com,2013-03-26 20:27:00,
2013-03-26 16:43:00,35.6,25.7,29.83,NW,315,6.3,-999.0,67,-99.99,,,0.00,Acu-Link.com,2013-03-26 20:43:00,
2013-03-26 16:58:00,36.0,25.4,29.83,North,0,5.8,-999.0,65,-99.99,,,0.00,Acu-Link.com,2013-03-26 20:58:00,
2013-03-26 17:13:00,36.9,25.1,29.83,WNW,292,6.3,-999.0,62,-99.99,,,0.00,Acu-Link.com,2013-03-26 21:13:00,
2013-03-26 17:28:00,34.5,26.1,29.84,NE,45,6.8,-999.0,71,-99.99,,,0.00,Acu-Link.com,2013-03-26 21:28:00,
2013-03-26 17:43:00,35.1,26.7,29.83,WNW,292,4.2,-999.0,71,-99.99,,,0.00,Acu-Link.com,2013-03-26 21:43:00,
2013-03-26 17:58:00,35.1,25.6,29.84,West,270,10.4,-999.0,68,-99.99,,,0.00,Acu-Link.com,2013-03-26 21:58:00,
2013-03-26 18:13:00,34.2,25.8,29.85,NW,315,3.7,-999.0,71,-99.99,,,0.00,Acu-Link.com,2013-03-26 22:13:00,
2013-03-26 18:28:00,34.7,25.9,29.84,SSE,157,1.1,-999.0,70,-99.99,,,0.00,Acu-Link.com,2013-03-26 22:28:00,
2013-03-26 18:43:00,34.5,25.4,29.85,ENE,67,2.7,-999.0,69,-99.99,,,0.00,Acu-Link.com,2013-03-26 22:43:00,
2013-03-26 19:14:00,33.3,25.3,29.86,SE,135,1.1,-999.0,72,-99.99,,,0.00,Acu-Link.com,2013-03-26 23:14:00,
2013-03-26 19:29:00,33.1,24.7,29.86,WNW,292,3.7,-999.0,71,-99.99,,,0.00,Acu-Link.com,2013-03-26 23:29:00,
2013-03-26 19:44:00,32.9,24.9,29.87,NE,45,1.7,-999.0,72,-99.99,,,0.00,Acu-Link.com,2013-03-26 23:44:00,
2013-03-26 19:59:00,32.0,24.7,29.88,NNW,337,0.0,-999.0,74,-99.99,,,0.00,Acu-Link.com,2013-03-26 23:59:00,
2013-03-26 20:14:00,31.3,24.9,29.88,NNW,337,5.8,-999.0,77,-99.99,,,0.00,Acu-Link.com,2013-03-27 00:14:00,
2013-03-26 20:29:00,31.1,25.4,29.89,SSW,202,2.7,-999.0,79,-99.99,,,0.00,Acu-Link.com,2013-03-27 00:29:00,
2013-03-26 20:44:00,30.7,25.6,29.88,SSE,157,2.7,-999.0,81,-99.99,,,0.00,Acu-Link.com,2013-03-27 00:44:00,
2013-03-26 20:59:00,30.6,26.4,29.89,SW,225,4.7,-999.0,84,-99.99,,,0.00,Acu-Link.com,2013-03-27 00:59:00,
2013-03-26 21:14:00,30.9,26.4,29.89,NNW,337,2.2,-999.0,83,-99.99,,,0.00,Acu-Link.com,2013-03-27 01:14:00,
2013-03-26 21:30:00,31.3,26.5,29.90,East,90,2.2,-999.0,82,-99.99,,,0.00,Acu-Link.com,2013-03-27 01:30:00,
2013-03-26 21:45:00,31.3,27.0,29.90,NNE,22,2.7,-999.0,84,-99.99,,,0.00,Acu-Link.com,2013-03-27 01:45:00,
2013-03-26 22:00:00,30.9,27.2,29.91,ESE,112,3.7,-999.0,86,-99.99,,,0.00,Acu-Link.com,2013-03-27 02:00:00,
2013-03-26 22:15:00,30.4,26.7,29.91,NNE,22,3.7,-999.0,86,-99.99,,,0.00,Acu-Link.com,2013-03-27 02:15:00,
2013-03-26 22:30:00,30.2,26.8,29.92,ESE,112,4.7,-999.0,87,-99.99,,,0.00,Acu-Link.com,2013-03-27 02:30:00,
2013-03-26 22:45:00,30.2,26.5,29.93,NW,315,5.8,-999.0,86,-99.99,,,0.00,Acu-Link.com,2013-03-27 02:45:00,
2013-03-26 23:00:00,30.2,26.0,29.94,WNW,292,2.7,-999.0,84,-99.99,,,0.00,Acu-Link.com,2013-03-27 03:00:00,
2013-03-26 23:15:00,30.2,25.4,29.93,WNW,292,3.2,-999.0,82,-99.99,,,0.00,Acu-Link.com,2013-03-27 03:15:00,
2013-03-26 23:30:00,30.9,25.5,29.93,East,90,3.2,-999.0,80,-99.99,,,0.00,Acu-Link.com,2013-03-27 03:30:00,
2013-03-26 23:46:00,30.4,25.6,29.93,East,90,3.7,-999.0,82,-99.99,,,0.00,Acu-Link.com,2013-03-27 03:46:00,